Time;durP1;ratioP1;P1;durP2;ratioP2;P2;SDS_P1;SDS_P2;PMS_P1;PMS_P2;Temp;Humidity;BMP_temperature;BMP_pressure;BME280_temperature;BME280_humidity;BME280_pressure;Samples;Min_cycle;Max_cycle;Signal;HPM_P1;HPM_P2
2021/09/11 00:01:15;;;;;;;15.18;3.92;;;;;;;21.46;59.99;101423.63;10542032;28;20119;-75
2021/09/11 00:06:15;;;;;;;9.23;3.53;;;;;;;21.66;59.28;101411.16;10523311;28;20395;-75
2021/09/11 00:11:16;;;;;;;5.95;3.38;;;;;;;21.50;59.65;101412.91;10540290;28;20081;-75
2021/09/11 00:16:17;;;;;;;3.92;3.63;;;;;;;20.11;60.54;101228.59;10523352;28;20036;-75
2021/09/11 00:21:17;;;;;;;13.77;4.15;;;;;;;21.33;60.02;101412.97;10541616;28;20032;-75
2021/09/11 00:26:17;;;;;;;5.45;3.28;;;;;;;21.26;59.87;101415.94;10520762;28;20444;-75
2021/09/11 00:31:18;;;;;;;18.30;5.03;;;;;;;21.14;59.83;101358.22;10521633;28;20036;-74
2021/09/11 00:36:18;;;;;;;10.77;6.97;;;;;;;21.35;60.23;101400.66;10539602;28;20061;-75
2021/09/11 00:41:19;;;;;;;11.82;7.03;;;;;;;21.19;60.42;101406.19;10521998;28;20040;-75
2021/09/11 00:46:19;;;;;;;16.92;8.10;;;;;;;21.47;60.06;101413.44;10522029;28;20038;-75
2021/09/11 00:51:19;;;;;;;11.60;7.03;;;;;;;21.45;60.48;101416.47;10521658;28;20036;-74
2021/09/11 00:56:20;;;;;;;9.52;6.57;;;;;;;21.39;60.77;101411.97;10538833;28;20055;-75
2021/09/11 01:01:20;;;;;;;10.68;7.72;;;;;;;21.19;61.56;101409.78;10543900;28;20020;-75
2021/09/11 01:06:21;;;;;;;12.52;6.30;;;;;;;21.20;61.01;101391.34;10549250;28;20036;-75
2021/09/11 01:11:21;;;;;;;11.35;6.78;;;;;;;20.40;60.69;101272.44;10529675;28;20378;-75
2021/09/11 01:16:21;;;;;;;8.80;6.55;;;;;;;21.41;60.68;101415.31;10547363;28;20123;-75
2021/09/11 01:21:22;;;;;;;18.30;8.20;;;;;;;20.68;60.46;101290.75;10547612;28;20085;-75
2021/09/11 01:26:22;;;;;;;9.27;6.13;;;;;;;21.19;60.66;101415.28;10547182;28;20040;-75
2021/09/11 01:31:22;;;;;;;12.45;7.95;;;;;;;20.51;60.39;101282.53;10546709;28;20028;-75
2021/09/11 01:36:23;;;;;;;13.30;7.97;;;;;;;21.25;61.11;101421.69;10545574;28;20039;-75
2021/09/11 01:41:23;;;;;;;12.40;8.85;;;;;;;20.43;61.88;101311.28;10544968;28;20383;-75
2021/09/11 01:46:24;;;;;;;10.43;9.20;;;;;;;20.49;62.33;101336.13;10545534;28;20119;-75
2021/09/11 01:51:24;;;;;;;17.67;8.65;;;;;;;20.87;62.55;101420.66;10545595;28;20037;-75
2021/09/11 01:56:24;;;;;;;19.45;8.85;;;;;;;20.92;62.72;101431.72;10546155;28;20360;-74
2021/09/11 02:01:25;;;;;;;17.02;11.55;;;;;;;20.66;63.36;101428.59;10545143;28;20032;-75
2021/09/11 02:06:26;;;;;;;13.63;10.02;;;;;;;20.49;63.70;101391.97;10527510;28;20040;-75
2021/09/11 02:11:27;;;;;;;15.88;10.60;;;;;;;20.58;64.18;101419.91;10542312;28;20028;-75
2021/09/11 02:16:27;;;;;;;12.40;9.32;;;;;;;19.85;64.27;101322.75;10544307;28;20392;-75
2021/09/11 02:21:28;;;;;;;23.88;9.32;;;;;;;20.03;63.76;101299.66;10528425;28;20036;-74
2021/09/11 02:26:28;;;;;;;14.88;10.00;;;;;;;20.26;64.10;101364.63;10544112;28;20028;-75
2021/09/11 02:31:28;;;;;;;18.52;9.63;;;;;;;20.44;64.47;101378.13;10527419;28;20039;-75
2021/09/11 02:36:29;;;;;;;18.58;8.60;;;;;;;20.78;64.57;101422.16;10544604;28;20487;-75
2021/09/11 02:41:29;;;;;;;22.83;9.15;;;;;;;20.64;64.54;101400.50;10542984;28;20052;-75
2021/09/11 02:46:30;;;;;;;18.27;9.93;;;;;;;19.62;64.30;101239.38;10524823;28;20040;-75
2021/09/11 02:51:30;;;;;;;19.55;9.43;;;;;;;20.80;64.41;101408.97;10525454;28;20103;-75
2021/09/11 02:56:31;;;;;;;28.85;9.48;;;;;;;20.52;63.96;101363.16;10542713;28;20036;-75
2021/09/11 03:01:31;;;;;;;23.63;9.30;;;;;;;20.92;63.53;101409.69;10543649;28;20028;-74
2021/09/11 03:06:32;;;;;;;11.60;7.80;;;;;;;20.59;64.40;101391.34;10544085;28;20040;-75
2021/09/11 03:11:32;;;;;;;9.45;8.00;;;;;;;20.81;64.23;101416.16;10543823;28;20399;-75
2021/09/11 03:16:32;;;;;;;20.85;7.57;;;;;;;20.78;64.30;101411.16;10542566;28;20039;-74
2021/09/11 03:21:33;;;;;;;14.43;8.63;;;;;;;20.77;64.41;101414.97;10523437;28;20085;-74
2021/09/11 03:26:33;;;;;;;10.77;8.20;;;;;;;20.42;65.42;101392.16;10524392;28;20040;-75
2021/09/11 03:31:34;;;;;;;13.98;9.13;;;;;;;20.41;66.09;101417.16;10543322;28;20036;-75
2021/09/11 03:36:34;;;;;;;12.15;10.05;;;;;;;20.43;66.21;101415.00;10523087;28;20044;-75
2021/09/11 03:41:34;;;;;;;17.15;8.35;;;;;;;20.61;65.51;101416.66;10542884;28;20028;-75
2021/09/11 03:46:35;;;;;;;20.75;8.82;;;;;;;20.64;65.33;101424.41;10540627;28;20040;-75
2021/09/11 03:51:36;;;;;;;22.85;9.50;;;;;;;20.53;65.61;101404.16;10522584;28;20117;-75
2021/09/11 03:56:38;;;;;;;14.48;9.88;;;;;;;20.62;65.12;101429.34;10523518;28;20068;-74
2021/09/11 04:01:39;;;;;;;22.67;10.10;;;;;;;20.48;65.63;101428.81;10541045;28;20031;-74
2021/09/11 04:06:39;;;;;;;14.23;9.95;;;;;;;20.40;65.94;101432.00;10541645;28;20466;-75
2021/09/11 04:11:39;;;;;;;15.05;10.13;;;;;;;20.28;65.65;101381.72;10541470;28;20035;-74
2021/09/11 04:16:40;;;;;;;19.80;10.02;;;;;;;20.08;65.47;101347.31;10542276;28;20047;-75
2021/09/11 04:21:40;;;;;;;11.52;10.15;;;;;;;20.54;65.27;101425.09;10541584;28;20177;-75
2021/09/11 04:26:41;;;;;;;18.38;10.95;;;;;;;20.36;66.30;101414.34;10521798;28;20040;-75
2021/09/11 04:31:42;;;;;;;16.00;12.50;;;;;;;19.42;66.36;101266.47;10539786;28;20472;-74
2021/09/11 04:36:42;;;;;;;14.05;10.70;;;;;;;20.25;66.42;101426.22;10526192;28;20043;-74
2021/09/11 04:41:42;;;;;;;16.85;10.43;;;;;;;20.31;66.61;101425.25;10531377;28;20498;-75
2021/09/11 04:46:43;;;;;;;19.23;12.65;;;;;;;19.97;67.15;101393.06;10548613;28;20464;-74
2021/09/11 04:51:43;;;;;;;15.68;11.15;;;;;;;19.92;67.19;101398.47;10530092;28;20032;-74
2021/09/11 04:56:44;;;;;;;22.38;11.85;;;;;;;19.98;66.65;101363.66;10546977;28;20036;-74
2021/09/11 05:01:44;;;;;;;21.92;11.75;;;;;;;19.51;66.84;101293.28;10548229;28;20460;-73
2021/09/11 05:06:44;;;;;;;19.63;11.88;;;;;;;20.29;66.66;101417.22;10528875;28;20063;-74
2021/09/11 05:11:45;;;;;;;13.07;11.80;;;;;;;19.81;67.15;101369.13;10546566;28;20028;-74
2021/09/11 05:16:45;;;;;;;12.38;10.88;;;;;;;20.28;66.85;101399.06;10547326;28;20387;-74
2021/09/11 05:21:45;;;;;;;19.15;12.85;;;;;;;20.60;66.07;101434.25;10528508;28;20060;-74
2021/09/11 05:26:46;;;;;;;25.42;12.63;;;;;;;19.43;66.39;101249.75;10546245;28;20032;-74
2021/09/11 05:31:46;;;;;;;23.60;15.18;;;;;;;20.55;66.84;101440.53;10547146;28;20032;-73
2021/09/11 05:36:49;;;;;;;20.40;13.05;;;;;;;20.40;66.52;101424.56;10547167;28;20040;-74
2021/09/11 05:41:49;;;;;;;23.77;11.98;;;;;;;20.52;66.97;101442.97;10547125;28;20624;-74
2021/09/11 05:46:50;;;;;;;18.58;13.18;;;;;;;20.61;66.72;101455.19;10546289;28;20039;-74
2021/09/11 05:51:50;;;;;;;14.90;12.50;;;;;;;20.59;66.43;101444.44;10545027;28;20056;-74
2021/09/11 05:56:51;;;;;;;22.25;12.98;;;;;;;20.63;66.69;101464.03;10526235;28;20451;-73
2021/09/11 06:01:51;;;;;;;20.73;13.75;;;;;;;20.42;67.11;101440.81;10545197;28;20036;-74
2021/09/11 06:06:54;;;;;;;20.33;12.98;;;;;;;20.01;68.00;101411.81;10544537;28;20118;-74
2021/09/11 06:11:54;;;;;;;31.90;15.45;;;;;;;20.59;67.21;101491.22;10526354;28;20042;-74
2021/09/11 06:16:55;;;;;;;21.15;13.18;;;;;;;20.52;67.22;101489.72;10544301;28;20035;-74
2021/09/11 06:21:55;;;;;;;25.90;12.95;;;;;;;20.71;66.65;101510.41;10546123;28;20384;-74
2021/09/11 06:26:56;;;;;;;17.98;12.75;;;;;;;20.42;67.06;101465.56;10545193;28;20435;-74
2021/09/11 06:31:56;;;;;;;21.08;12.65;;;;;;;20.63;67.13;101497.88;10545186;28;20032;-75
2021/09/11 06:36:57;;;;;;;16.88;12.20;;;;;;;20.61;67.05;101500.06;10545037;28;20387;-75
2021/09/11 06:41:57;;;;;;;21.73;11.32;;;;;;;20.20;67.17;101422.31;10526034;28;20028;-75
2021/09/11 06:46:57;;;;;;;19.27;12.65;;;;;;;20.52;67.14;101489.72;10543193;28;20074;-74
2021/09/11 06:51:58;;;;;;;15.88;11.55;;;;;;;20.13;67.12;101453.78;10507992;28;20385;-74
2021/09/11 06:56:58;;;;;;;23.38;11.30;;;;;;;20.78;66.54;101499.22;10507173;28;20089;-75
2021/09/11 07:01:58;;;;;;;20.17;10.65;;;;;;;20.86;66.75;101520.81;10507584;28;20064;-75
2021/09/11 07:06:59;;;;;;;21.00;12.77;;;;;;;21.04;66.15;101533.50;10525500;28;20044;-74
2021/09/11 07:11:59;;;;;;;19.70;11.85;;;;;;;21.21;65.69;101522.44;10524943;28;20085;-73
2021/09/11 07:17:00;;;;;;;12.57;11.38;;;;;;;20.90;66.37;101502.72;10544042;27;20142;-76
2021/09/11 07:22:00;;;;;;;28.33;12.38;;;;;;;20.78;66.09;101457.94;10608229;27;20382;-76
2021/09/11 07:27:00;;;;;;;23.95;13.10;;;;;;;21.19;65.71;101497.91;10608647;27;20060;-75
2021/09/11 07:32:03;;;;;;;13.93;12.05;;;;;;;20.58;65.17;101384.13;10626267;27;20024;-73
2021/09/11 07:37:04;;;;;;;22.13;12.85;;;;;;;20.52;65.35;101380.50;10625337;27;20035;-75
2021/09/11 07:42:04;;;;;;;25.27;12.65;;;;;;;20.93;65.75;101463.69;10625188;27;20042;-73
2021/09/11 07:47:05;;;;;;;21.50;12.55;;;;;;;21.76;64.74;101544.47;10625313;27;20073;-74
2021/09/11 07:52:06;;;;;;;18.73;12.68;;;;;;;21.75;64.98;101547.44;10624599;27;20090;-74
2021/09/11 07:57:06;;;;;;;26.70;14.25;;;;;;;21.91;64.58;101549.31;10624491;27;20534;-74
2021/09/11 08:02:07;;;;;;;23.77;13.93;;;;;;;22.17;63.91;101553.22;10607183;27;20039;-74
2021/09/11 08:07:07;;;;;;;26.98;13.48;;;;;;;21.35;63.67;101419.94;10624669;27;20035;-74
2021/09/11 08:12:08;;;;;;;24.77;13.80;;;;;;;21.53;63.41;101443.56;10624458;27;20039;-74
2021/09/11 08:17:08;;;;;;;25.35;14.43;;;;;;;22.28;63.62;101560.53;10624785;28;20027;-74
2021/09/11 08:22:08;;;;;;;32.20;13.25;;;;;;;22.24;63.87;101564.06;10624635;28;20032;-74
2021/09/11 08:27:09;;;;;;;21.70;14.55;;;;;;;20.81;64.43;101388.63;10605111;28;20092;-73
2021/09/11 08:32:09;;;;;;;19.50;15.18;;;;;;;22.06;64.98;101576.25;10624395;28;20062;-74
2021/09/11 08:37:10;;;;;;;19.50;13.30;;;;;;;22.19;64.58;101597.94;10624687;28;20088;-74
2021/09/11 08:42:11;;;;;;;23.90;13.85;;;;;;;22.08;64.23;101559.41;10625003;28;20109;-74
2021/09/11 08:47:11;;;;;;;16.08;11.10;;;;;;;22.42;63.81;101598.72;10606709;28;20028;-74
2021/09/11 08:52:13;;;;;;;15.77;12.93;;;;;;;22.44;64.04;101596.56;10606872;28;20134;-74
2021/09/11 08:57:24;;;;;;;23.30;13.20;;;;;;;22.43;64.00;101605.91;10623780;28;20478;-74
2021/09/11 09:02:25;;;;;;;20.25;11.40;;;;;;;22.39;64.73;101624.91;10607179;28;20067;-76
2021/09/11 09:07:38;;;;;;;18.85;12.13;;;;;;;22.57;64.68;101642.25;10625585;28;20030;-79
2021/09/11 09:12:40;;;;;;;14.55;12.50;;;;;;;22.24;65.25;101594.41;10624484;28;20394;-77
2021/09/11 09:17:46;;;;;;;21.17;14.52;;;;;;;22.92;64.31;101616.91;10605117;28;20031;-78
2021/09/11 09:22:59;;;;;;;20.92;14.70;;;;;;;23.12;63.67;101635.59;10627665;27;20367;-77
2021/09/11 09:28:02;;;;;;;19.23;13.45;;;;;;;22.65;63.13;101473.34;10630405;27;20027;-78
2021/09/11 09:33:03;;;;;;;22.20;14.32;;;;;;;23.53;62.12;101619.31;10635257;27;20488;-78
2021/09/11 09:38:07;;;;;;;24.30;13.35;;;;;;;23.79;61.66;101634.97;10614535;27;20035;-78
2021/09/11 09:43:09;;;;;;;12.20;10.88;;;;;;;22.82;61.54;101471.28;10632083;27;20096;-80
2021/09/11 09:48:10;;;;;;;16.77;11.18;;;;;;;22.86;61.63;101494.50;10630407;27;20126;-79
2021/09/11 09:53:11;;;;;;;18.95;10.25;;;;;;;23.96;61.32;101622.88;10594871;27;20475;-79
2021/09/11 09:58:11;;;;;;;15.23;11.27;;;;;;;24.11;60.98;101617.41;10630445;27;20027;-80
2021/09/11 10:03:13;;;;;;;14.43;10.57;;;;;;;24.29;60.16;101616.09;10595930;27;20047;-80
2021/09/11 10:08:13;;;;;;;19.15;10.20;;;;;;;23.76;60.65;101602.31;10630737;27;20039;-80
2021/09/11 10:13:15;;;;;;;14.05;9.07;;;;;;;23.83;60.89;101615.91;10605782;27;20360;-79
2021/09/11 10:18:34;;;;;;;12.20;9.02;;;;;;;23.69;61.54;101614.75;10587873;27;20142;-78
2021/09/11 10:23:35;;;;;;;10.07;9.05;;;;;;;23.75;61.49;101610.91;10629430;27;20031;-78
2021/09/11 10:28:35;;;;;;;11.10;7.78;;;;;;;24.09;60.41;101603.88;10629196;27;20073;-78
2021/09/11 10:33:42;;;;;;;18.13;7.45;;;;;;;24.21;60.13;101587.00;10609484;27;20031;-79
2021/09/11 10:38:42;;;;;;;;;;;;;;;24.85;59.50;101616.22;10629448;27;20039;-79
2021/09/11 10:44:01;;;;;;;9.03;6.37;;;;;;;25.35;58.26;101605.44;10628604;27;19911;-78
2021/09/11 10:49:01;;;;;;;13.85;6.18;;;;;;;25.16;57.52;101596.88;10634503;27;20320;-79
2021/09/11 10:54:23;;;;;;;7.28;5.97;;;;;;;24.36;57.45;101481.84;10628919;27;20127;-79
2021/09/11 10:59:24;;;;;;;7.55;6.20;;;;;;;24.07;59.33;101602.47;10628545;27;20046;-79
2021/09/11 11:04:26;;;;;;;6.03;5.32;;;;;;;23.60;60.78;101630.97;10610071;27;20106;-78
2021/09/11 11:09:26;;;;;;;6.55;4.57;;;;;;;23.60;61.40;101622.66;10627809;27;20027;-75
2021/09/11 11:14:29;;;;;;;5.35;3.95;;;;;;;23.94;61.15;101595.50;10592225;27;20090;-75
2021/09/11 11:19:34;;;;;;;8.02;2.67;;;;;;;24.02;60.40;101603.28;10627914;27;20031;-75
2021/09/11 11:24:36;;;;;;;3.72;2.47;;;;;;;23.55;59.53;101481.66;10609170;27;20042;-74
2021/09/11 11:29:36;;;;;;;1.95;1.77;;;;;;;24.61;59.18;101606.81;10607481;27;20023;-75
2021/09/11 11:34:37;;;;;;;2.58;2.03;;;;;;;25.20;56.95;101634.81;10607556;27;20114;-76
2021/09/11 11:39:39;;;;;;;5.25;2.22;;;;;;;25.36;55.75;101615.41;10607158;27;20490;-77
2021/09/11 11:44:46;;;;;;;2.13;2.03;;;;;;;25.21;56.41;101578.28;10606912;27;20031;-75
2021/09/11 11:49:47;;;;;;;3.45;3.15;;;;;;;26.36;55.54;101614.53;10607298;27;20027;-75
2021/09/11 11:54:47;;;;;;;6.13;2.75;;;;;;;27.01;53.76;101611.59;10623841;27;20058;-74
2021/09/11 12:00:04;;;;;;;4.82;3.38;;;;;;;27.30;53.58;101611.63;10624034;27;20115;-75
2021/09/11 12:05:13;;;;;;;7.03;5.25;;;;;;;26.80;53.31;101606.22;10606781;27;20112;-74
2021/09/11 12:10:16;;;;;;;4.65;3.90;;;;;;;26.62;54.17;101606.91;10626074;27;20035;-77
2021/09/11 12:15:19;;;;;;;6.15;4.43;;;;;;;26.47;54.06;101607.78;10606584;27;20395;-77
2021/09/11 12:20:20;;;;;;;12.85;5.82;;;;;;;26.37;54.50;101603.13;10625346;27;20081;-78
2021/09/11 12:25:20;;;;;;;8.45;5.97;;;;;;;26.28;54.95;101593.75;10625745;28;20371;-78
2021/09/11 12:30:20;;;;;;;8.40;5.97;;;;;;;26.49;54.17;101608.38;10625490;28;20161;-78
2021/09/11 12:35:27;;;;;;;6.03;5.20;;;;;;;27.05;53.29;101627.41;10625361;28;20488;-77
2021/09/11 12:40:28;;;;;;;6.90;5.25;;;;;;;26.61;52.39;101588.56;10600004;28;20498;-76
2021/09/11 12:45:28;;;;;;;6.43;5.90;;;;;;;26.10;53.30;101578.59;10593200;28;20043;-74
2021/09/11 12:50:29;;;;;;;7.10;6.40;;;;;;;25.85;53.66;101592.59;10604991;28;20042;-75
2021/09/11 12:55:29;;;;;;;10.80;7.68;;;;;;;25.85;54.03;101612.00;10623091;27;20085;-75
2021/09/11 13:00:29;;;;;;;11.20;7.40;;;;;;;25.61;53.87;101559.88;10585337;28;20038;-76
2021/09/11 13:05:30;;;;;;;14.13;7.85;;;;;;;25.84;54.40;101593.69;10578694;28;20040;-74
2021/09/11 13:10:30;;;;;;;9.38;7.93;;;;;;;26.72;52.69;101608.78;10545030;28;20028;-75
2021/09/11 13:15:30;;;;;;;8.90;7.88;;;;;;;26.13;52.60;101594.69;10568624;28;20070;-75
2021/09/11 13:20:32;;;;;;;20.90;8.63;;;;;;;25.54;52.74;101526.06;10571097;28;20043;-73
2021/09/11 13:25:32;;;;;;;9.57;8.20;;;;;;;26.14;52.71;101614.94;10568999;28;20038;-74
2021/09/11 13:30:33;;;;;;;13.13;8.15;;;;;;;26.38;52.79;101617.84;10563783;28;20028;-73
2021/09/11 13:35:36;;;;;;;14.30;8.23;;;;;;;26.69;52.06;101617.69;10544758;28;20032;-76
2021/09/11 13:40:39;;;;;;;9.60;8.20;;;;;;;26.44;51.73;101586.97;10544396;28;20480;-77
2021/09/11 13:45:39;;;;;;;7.50;6.80;;;;;;;25.46;52.20;101505.31;10526607;28;20498;-75
2021/09/11 13:50:40;;;;;;;12.15;7.60;;;;;;;26.09;52.83;101626.03;10544847;28;20032;-75
2021/09/11 13:55:40;;;;;;;8.90;7.75;;;;;;;25.77;53.26;101627.25;10544197;28;20083;-74
2021/09/11 14:00:40;;;;;;;16.33;9.13;;;;;;;25.64;52.97;101631.44;10544360;28;20036;-74
2021/09/11 14:05:42;;;;;;;13.05;8.48;;;;;;;25.68;53.01;101654.72;10556921;28;20471;-75
2021/09/11 14:10:43;;;;;;;11.13;7.55;;;;;;;25.26;53.60;101643.97;10538615;28;20573;-76
2021/09/11 14:15:43;;;;;;;9.40;8.40;;;;;;;25.28;53.62;101605.72;10526006;28;20089;-75
2021/09/11 14:20:44;;;;;;;8.77;7.20;;;;;;;25.49;53.63;101639.78;10543860;28;20055;-75
2021/09/11 14:25:44;;;;;;;9.10;8.20;;;;;;;25.60;53.11;101635.91;10542880;28;20055;-75
2021/09/11 14:30:45;;;;;;;14.80;9.77;;;;;;;25.31;53.59;101654.25;10543924;28;20055;-76
2021/09/11 14:35:45;;;;;;;11.00;6.90;;;;;;;25.17;53.24;101629.84;10526525;28;20122;-75
2021/09/11 14:40:46;;;;;;;9.73;7.80;;;;;;;25.10;53.71;101636.75;10543583;28;20036;-73
2021/09/11 14:45:46;;;;;;;11.80;7.43;;;;;;;24.87;54.45;101651.97;10560924;28;20023;-76
2021/09/11 14:50:46;;;;;;;10.20;7.47;;;;;;;24.80;54.84;101653.06;10562050;28;20023;-76
2021/09/11 14:55:47;;;;;;;9.52;8.57;;;;;;;24.72;54.76;101611.22;10565492;28;20062;-75
2021/09/11 15:00:47;;;;;;;13.48;7.82;;;;;;;24.86;54.39;101622.63;10566690;28;20403;-75
2021/09/11 15:05:48;;;;;;;8.65;7.75;;;;;;;24.88;54.09;101615.69;10584307;28;20115;-75
2021/09/11 15:10:48;;;;;;;8.48;6.68;;;;;;;25.08;54.10;101650.91;10584134;28;20042;-75
2021/09/11 15:15:48;;;;;;;14.52;8.98;;;;;;;24.45;54.18;101556.94;10565698;28;20058;-75
2021/09/11 15:20:49;;;;;;;11.10;7.78;;;;;;;25.12;54.00;101640.94;10565299;28;20059;-75
2021/09/11 15:25:49;;;;;;;7.75;7.03;;;;;;;24.92;54.11;101618.72;10564982;28;20036;-75
2021/09/11 15:30:50;;;;;;;13.40;7.65;;;;;;;24.97;54.09;101636.19;10548116;28;20044;-75
2021/09/11 15:35:50;;;;;;;15.32;8.02;;;;;;;24.75;54.41;101630.06;10583294;28;20043;-75
2021/09/11 15:40:52;;;;;;;21.35;11.00;;;;;;;24.63;54.82;101627.56;10564766;28;20480;-74
2021/09/11 15:45:55;;;;;;;11.35;9.00;;;;;;;24.79;54.84;101645.88;10584360;28;20114;-75
2021/09/11 15:50:56;;;;;;;18.25;10.65;;;;;;;24.79;54.89;101654.19;10583889;28;20032;-75
2021/09/11 15:55:56;;;;;;;13.30;9.68;;;;;;;24.71;54.98;101653.91;10583173;28;20417;-75
2021/09/11 16:00:57;;;;;;;13.68;9.70;;;;;;;24.73;54.84;101644.22;10565350;28;20032;-75
2021/09/11 16:05:57;;;;;;;15.80;8.20;;;;;;;24.68;54.90;101648.91;10583543;28;20035;-75
2021/09/11 16:10:58;;;;;;;16.63;8.70;;;;;;;24.25;55.26;101643.50;10583003;28;20123;-75
2021/09/11 16:15:58;;;;;;;12.95;7.60;;;;;;;23.53;55.72;101539.16;10583176;28;20035;-75
2021/09/11 16:20:59;;;;;;;10.30;8.00;;;;;;;24.15;55.91;101651.75;10564820;28;20032;-75
2021/09/11 16:25:59;;;;;;;13.77;8.52;;;;;;;24.35;55.35;101654.59;10581597;28;20084;-75
2021/09/11 16:31:00;;;;;;;8.57;7.60;;;;;;;24.26;55.57;101675.59;10584355;28;20398;-75
2021/09/11 16:36:00;;;;;;;12.85;7.97;;;;;;;24.15;55.72;101648.97;10573408;28;20081;-75
2021/09/11 16:41:00;;;;;;;12.30;10.07;;;;;;;23.19;56.27;101532.03;10592174;28;20042;-75
2021/09/11 16:46:01;;;;;;;12.85;9.07;;;;;;;23.56;56.08;101582.84;10591577;28;20024;-75
2021/09/11 16:51:01;;;;;;;10.98;9.05;;;;;;;24.01;56.09;101656.13;10591135;28;20063;-75
2021/09/11 16:56:02;;;;;;;21.35;9.45;;;;;;;23.76;56.28;101648.50;10589628;28;20056;-75
2021/09/11 17:01:02;;;;;;;14.07;9.50;;;;;;;23.69;56.90;101657.06;10590186;28;20088;-75
2021/09/11 17:06:03;;;;;;;10.77;8.25;;;;;;;23.84;56.60;101661.84;10589340;28;20034;-75
2021/09/11 17:11:03;;;;;;;9.40;8.50;;;;;;;23.31;57.25;101634.09;10554376;28;20118;-75
2021/09/11 17:16:04;;;;;;;14.60;8.98;;;;;;;23.50;57.21;101680.66;10571444;28;20104;-74
2021/09/11 17:21:05;;;;;;;19.63;9.35;;;;;;;23.06;57.30;101623.66;10571394;28;20123;-74
2021/09/11 17:26:05;;;;;;;15.50;11.02;;;;;;;23.27;57.71;101677.19;10588252;28;20471;-74
2021/09/11 17:31:05;;;;;;;12.02;8.88;;;;;;;22.47;57.30;101527.03;10588689;28;20070;-75
2021/09/11 17:36:06;;;;;;;17.33;9.82;;;;;;;23.37;57.49;101676.44;10587967;28;20031;-74
2021/09/11 17:41:06;;;;;;;15.95;10.10;;;;;;;23.14;58.19;101674.84;10570586;28;20039;-75
2021/09/11 17:46:08;;;;;;;10.02;7.78;;;;;;;22.93;58.42;101652.56;10588136;28;20031;-74
2021/09/11 17:51:08;;;;;;;16.85;9.32;;;;;;;21.94;58.52;101512.13;10569230;28;20039;-74
2021/09/11 17:56:08;;;;;;;13.35;8.07;;;;;;;22.88;59.02;101674.59;10587115;28;20051;-75
2021/09/11 18:01:09;;;;;;;14.57;8.45;;;;;;;22.54;58.79;101646.34;10586955;28;20040;-74
2021/09/11 18:06:10;;;;;;;7.32;5.57;;;;;;;22.63;59.46;101664.13;10586871;28;20042;-74
2021/09/11 18:11:11;;;;;;;14.98;7.60;;;;;;;22.38;59.63;101639.81;10587273;28;20031;-74
2021/09/11 18:16:12;;;;;;;15.32;7.20;;;;;;;22.45;59.75;101656.19;10586060;28;20089;-74
2021/09/11 18:21:13;;;;;;;9.90;6.32;;;;;;;22.27;59.72;101647.16;10586536;28;20031;-74
2021/09/11 18:26:16;;;;;;;22.42;6.97;;;;;;;22.32;60.11;101685.00;10585727;28;20035;-74
2021/09/11 18:31:16;;;;;;;9.88;6.10;;;;;;;22.13;60.48;101687.22;10586269;28;20059;-74
2021/09/11 18:36:17;;;;;;;6.97;5.68;;;;;;;22.08;60.75;101684.41;10586765;28;20796;-75
2021/09/11 18:41:18;;;;;;;22.83;5.13;;;;;;;22.22;60.41;101706.94;10568651;28;20067;-73
2021/09/11 18:46:19;;;;;;;16.38;5.60;;;;;;;21.28;60.18;101554.25;10586834;28;20028;-75
2021/09/11 18:51:19;;;;;;;9.25;3.67;;;;;;;21.23;59.90;101567.09;10586162;28;20126;-73
2021/09/11 18:56:20;;;;;;;8.55;4.03;;;;;;;22.00;59.72;101701.38;10583342;28;20052;-74
2021/09/11 19:01:20;;;;;;;12.07;3.95;;;;;;;21.96;59.44;101722.28;10549495;28;20042;-74
2021/09/11 19:06:20;;;;;;;15.18;4.03;;;;;;;21.95;59.40;101732.50;10565856;28;20063;-74
2021/09/11 19:11:21;;;;;;;13.90;4.85;;;;;;;21.98;59.09;101739.41;10566406;28;20391;-74
2021/09/11 19:16:21;;;;;;;4.47;3.28;;;;;;;22.04;58.95;101736.47;10584684;28;20035;-74
2021/09/11 19:21:22;;;;;;;2.88;2.65;;;;;;;20.83;58.76;101551.59;10584394;28;20040;-74
2021/09/11 19:26:22;;;;;;;6.93;2.25;;;;;;;21.83;59.11;101745.53;10583745;28;20028;-74
2021/09/11 19:31:22;;;;;;;9.98;3.65;;;;;;;21.96;58.95;101753.44;10565486;28;20027;-74
2021/09/11 19:36:23;;;;;;;11.48;3.42;;;;;;;22.08;58.59;101758.00;10584215;28;20067;-74
2021/09/11 19:41:23;;;;;;;6.47;3.60;;;;;;;22.01;58.56;101763.72;10583314;28;20038;-74
2021/09/11 19:46:24;;;;;;;7.30;2.72;;;;;;;21.74;58.28;101727.75;10583207;28;20036;-74
2021/09/11 19:51:25;;;;;;;10.23;3.47;;;;;;;21.96;58.42;101761.72;10565006;28;20036;-74
2021/09/11 19:56:25;;;;;;;9.43;3.00;;;;;;;21.97;58.00;101735.81;10581945;28;20051;-74
2021/09/11 20:01:25;;;;;;;10.27;3.17;;;;;;;21.34;57.37;101646.06;10582360;28;20459;-74
2021/09/11 20:06:26;;;;;;;11.20;3.90;;;;;;;22.04;57.41;101755.75;10581919;28;20523;-74
2021/09/11 20:11:26;;;;;;;5.50;4.38;;;;;;;21.98;57.17;101762.28;10547690;28;20039;-75
2021/09/11 20:16:27;;;;;;;3.08;2.60;;;;;;;20.94;57.02;101608.50;10582607;28;20066;-75
2021/09/11 20:21:27;;;;;;;14.90;4.00;;;;;;;21.81;56.74;101759.56;10583041;28;20039;-74
2021/09/11 20:26:27;;;;;;;13.75;3.17;;;;;;;21.78;56.27;101742.69;10564622;28;20035;-75
2021/09/11 20:31:28;;;;;;;6.10;2.92;;;;;;;21.11;56.45;101658.91;10582622;28;20032;-74
2021/09/11 20:36:29;;;;;;;9.23;2.92;;;;;;;20.97;56.04;101621.78;10563776;28;20093;-74
2021/09/11 20:41:30;;;;;;;4.93;2.50;;;;;;;21.87;55.91;101789.97;10582678;28;20558;-75
2021/09/11 20:46:30;;;;;;;7.93;3.30;;;;;;;21.69;56.53;101764.31;10564086;28;20119;-74
2021/09/11 20:51:31;;;;;;;8.02;3.00;;;;;;;21.69;56.58;101757.97;10582649;28;20071;-74
2021/09/11 20:56:31;;;;;;;6.78;2.90;;;;;;;21.73;56.55;101754.50;10581775;28;20056;-74
2021/09/11 21:01:32;;;;;;;15.25;4.18;;;;;;;21.66;56.24;101719.88;10564577;28;20528;-74
2021/09/11 21:06:33;;;;;;;8.38;3.30;;;;;;;21.44;56.85;101717.91;10563617;28;20126;-74
2021/09/11 21:11:33;;;;;;;4.82;2.78;;;;;;;21.75;56.75;101755.06;10582022;28;20032;-74
2021/09/11 21:16:33;;;;;;;10.32;4.30;;;;;;;21.62;56.88;101727.84;10563880;28;20483;-74
2021/09/11 21:21:34;;;;;;;10.45;4.13;;;;;;;21.59;57.35;101753.13;10589069;28;20074;-74
2021/09/11 21:26:34;;;;;;;6.57;3.30;;;;;;;19.66;57.72;101465.84;10589083;28;20459;-75
2021/09/11 21:31:35;;;;;;;6.47;4.38;;;;;;;21.63;57.53;101748.78;10588886;28;20081;-74
2021/09/11 21:36:35;;;;;;;7.47;4.05;;;;;;;21.59;57.48;101758.66;10588914;28;20096;-74
2021/09/11 21:41:35;;;;;;;4.93;4.30;;;;;;;21.56;57.27;101761.91;10586723;28;20558;-76
2021/09/11 21:46:36;;;;;;;12.77;2.85;;;;;;;21.57;57.54;101756.16;10587261;28;20032;-77
2021/09/11 21:51:36;;;;;;;11.02;4.22;;;;;;;21.50;57.04;101735.34;10570155;28;20050;-75
2021/09/11 21:56:36;;;;;;;13.32;3.13;;;;;;;21.39;57.12;101736.28;10570671;28;20519;-76
2021/09/11 22:01:37;;;;;;;6.25;3.70;;;;;;;21.49;57.35;101759.31;10570633;28;20035;-75
2021/09/11 22:06:37;;;;;;;6.78;3.78;;;;;;;21.33;57.90;101755.44;10589608;28;20471;-75
2021/09/11 22:11:38;;;;;;;5.82;4.03;;;;;;;21.28;57.94;101774.63;10571181;28;20028;-76
2021/09/11 22:16:39;;;;;;;12.27;3.63;;;;;;;21.31;58.22;101763.13;10569483;28;20039;-76
2021/09/11 22:21:40;;;;;;;9.73;2.88;;;;;;;21.17;58.72;101758.16;10551555;28;20027;-74
2021/09/11 22:26:43;;;;;;;11.18;3.50;;;;;;;20.92;58.65;101709.78;10585731;28;20051;-76
2021/09/11 22:31:44;;;;;;;6.55;3.65;;;;;;;20.69;58.69;101696.97;10567560;28;20641;-76
2021/09/11 22:36:44;;;;;;;2.47;2.28;;;;;;;20.92;59.14;101747.50;10550167;28;20051;-75
2021/09/11 22:41:44;;;;;;;3.28;2.85;;;;;;;21.04;58.82;101751.88;10567493;28;20478;-75
2021/09/11 22:46:45;;;;;;;3.55;2.15;;;;;;;19.74;58.70;101566.31;10568364;28;20043;-75